Map

Track Data

SID SEASON NUMBER BASIN SUBBASIN NAME ISO_TIME NATURE LAT LON WMO_WIND WMO_PRES WMO_AGENCY TRACK_TYPE DIST2LAND LANDFALL IFLAG USA_AGENCY USA_ATCF_ID USA_LAT USA_LON USA_RECORD USA_STATUS USA_WIND USA_PRES USA_SSHS USA_R34_NE USA_R34_SE USA_R34_SW USA_R34_NW USA_R50_NE USA_R50_SE USA_R50_SW USA_R50_NW USA_R64_NE USA_R64_SE USA_R64_SW USA_R64_NW USA_POCI USA_ROCI USA_RMW USA_EYE TOKYO_LAT TOKYO_LON TOKYO_GRADE TOKYO_WIND TOKYO_PRES TOKYO_R50_DIR TOKYO_R50_LONG TOKYO_R50_SHORT TOKYO_R30_DIR TOKYO_R30_LONG TOKYO_R30_SHORT TOKYO_LAND CMA_LAT CMA_LON CMA_CAT CMA_WIND CMA_PRES HKO_LAT HKO_LON HKO_CAT HKO_WIND HKO_PRES NEWDELHI_LAT NEWDELHI_LON NEWDELHI_GRADE NEWDELHI_WIND NEWDELHI_PRES NEWDELHI_CI NEWDELHI_DP NEWDELHI_POCI REUNION_LAT REUNION_LON REUNION_TYPE REUNION_WIND REUNION_PRES REUNION_TNUM REUNION_CI REUNION_RMW REUNION_R34_NE REUNION_R34_SE REUNION_R34_SW REUNION_R34_NW REUNION_R50_NE REUNION_R50_SE REUNION_R50_SW REUNION_R50_NW REUNION_R64_NE REUNION_R64_SE REUNION_R64_SW REUNION_R64_NW BOM_LAT BOM_LON BOM_TYPE BOM_WIND BOM_PRES BOM_TNUM BOM_CI BOM_RMW BOM_R34_NE BOM_R34_SE BOM_R34_SW BOM_R34_NW BOM_R50_NE BOM_R50_SE BOM_R50_SW BOM_R50_NW BOM_R64_NE BOM_R64_SE BOM_R64_SW BOM_R64_NW BOM_ROCI BOM_POCI BOM_EYE BOM_POS_METHOD BOM_PRES_METHOD NADI_LAT NADI_LON NADI_CAT NADI_WIND NADI_PRES WELLINGTON_LAT WELLINGTON_LON WELLINGTON_WIND WELLINGTON_PRES DS824_LAT DS824_LON DS824_STAGE DS824_WIND DS824_PRES TD9636_LAT TD9636_LON TD9636_STAGE TD9636_WIND TD9636_PRES TD9635_LAT TD9635_LON TD9635_WIND TD9635_PRES TD9635_ROCI NEUMANN_LAT NEUMANN_LON NEUMANN_CLASS NEUMANN_WIND NEUMANN_PRES MLC_LAT MLC_LON MLC_CLASS MLC_WIND MLC_PRES USA_GUST BOM_GUST BOM_GUST_PER REUNION_GUST REUNION_GUST_PER USA_SEAHGT USA_SEARAD_NE USA_SEARAD_SE USA_SEARAD_SW USA_SEARAD_NW STORM_SPEED STORM_DIR
1932181N18129 1932 31 WP MM NOT_NAMED 1932-06-29 10:00:00 NR 17.8000 128.500 main 618 603 __________O___ -1 17.8000 128.500 2 6 272
1932181N18129 1932 31 WP MM NOT_NAMED 1932-06-29 12:00:00 NR 17.8072 128.295 main 603 580 __________P___ -1 17.8072 128.295 2 6 272
1932181N18129 1932 31 WP MM NOT_NAMED 1932-06-29 15:00:00 NR 17.8213 127.983 main 580 559 __________P___ -1 17.8213 127.983 2 6 274
1932181N18129 1932 31 WP MM NOT_NAMED 1932-06-29 18:00:00 NR 17.8446 127.660 main 559 519 __________P___ -1 17.8446 127.660 2 6 276
1932181N18129 1932 31 WP MM NOT_NAMED 1932-06-29 21:00:00 NR 17.8829 127.319 main 519 508 __________P___ -1 17.8829 127.319 2 7 277
1932181N18129 1932 31 WP MM NOT_NAMED 1932-06-29 22:00:00 NR 17.9000 127.200 main 508 487 __________O___ -1 17.9000 127.200 2 7 280
1932181N18129 1932 31 WP MM NOT_NAMED 1932-06-30 00:00:00 NR 17.9411 126.953 main 487 449 __________P___ -1 17.9411 126.953 2 7 281
1932181N18129 1932 31 WP MM NOT_NAMED 1932-06-30 03:00:00 NR 18.0155 126.564 main 449 411 __________P___ -1 18.0155 126.564 2 8 282
1932181N18129 1932 31 WP MM NOT_NAMED 1932-06-30 06:00:00 NR 18.0969 126.158 main 411 359 __________P___ -1 18.0969 126.158 2 8 282
1932181N18129 1932 31 WP MM NOT_NAMED 1932-06-30 09:00:00 NR 18.1758 125.740 main 359 348 __________P___ -1 18.1758 125.740 2 8 281
1932181N18129 1932 31 WP MM NOT_NAMED 1932-06-30 10:00:00 NR 18.2000 125.600 main 348 317 __________O___ -1 18.2000 125.600 2 8 278
1932181N18129 1932 31 WP MM NOT_NAMED 1932-06-30 12:00:00 NR 18.2335 125.330 main 317 274 __________P___ -1 18.2335 125.330 2 8 277
1932181N18129 1932 31 WP MM NOT_NAMED 1932-06-30 15:00:00 NR 18.2775 124.919 main 274 232 __________P___ -1 18.2775 124.919 2 8 276
1932181N18129 1932 31 WP MM NOT_NAMED 1932-06-30 18:00:00 NR 18.3224 124.495 main 232 189 __________P___ -1 18.3224 124.495 2 8 277
1932181N18129 1932 31 WP MM NOT_NAMED 1932-06-30 21:00:00 NR 18.3777 124.053 main 189 168 __________P___ -1 18.3777 124.053 2 9 278
1932181N18129 1932 31 WP MM NOT_NAMED 1932-06-30 22:00:00 NR 18.4000 123.900 main 168 137 __________O___ -1 18.4000 123.900 2 9 278
1932181N18129 1932 31 WP MM NOT_NAMED 1932-07-01 00:00:00 NR 18.4422 123.576 main 137 85 __________P___ -1 18.4422 123.576 2 10 279
1932181N18129 1932 31 WP MM NOT_NAMED 1932-07-01 03:00:00 NR 18.5178 123.070 main 85 38 __________P___ -1 18.5178 123.070 2 10 280
1932181N18129 1932 31 WP MM NOT_NAMED 1932-07-01 06:00:00 NR 18.6164 122.559 main 38 24 __________P___ -1 18.6164 122.559 2 10 283
1932181N18129 1932 31 WP MM NOT_NAMED 1932-07-01 09:00:00 NR 18.7475 122.060 main 33 45 __________P___ -1 18.7475 122.060 2 10 286
1932181N18129 1932 31 WP MM NOT_NAMED 1932-07-01 10:00:00 NR 18.8000 121.900 main 49 45 __________O___ -1 18.8000 121.900 2 10 289
1932181N18129 1932 31 WP MM NOT_NAMED 1932-07-01 12:00:00 NR 18.9190 121.545 main 45 45 __________P___ -1 18.9190 121.545 2 11 292
1932181N18129 1932 31 WP MM NOT_NAMED 1932-07-01 15:00:00 NR 19.1290 121.030 main 56 56 __________P___ -1 19.1290 121.030 2 10 296
1932181N18129 1932 31 WP MM NOT_NAMED 1932-07-01 18:00:00 NR 19.3653 120.586 main 91 91 __________P___ -1 19.3653 120.586 2 9 304
1932181N18129 1932 31 WP MM NOT_NAMED 1932-07-01 21:00:00 NR 19.6156 120.268 main 123 123 __________P___ -1 19.6156 120.268 2 7 313
1932181N18129 1932 31 WP MM NOT_NAMED 1932-07-01 22:00:00 NR 19.7000 120.200 main 138 138 __________O___ -1 19.7000 120.200 2 6 332
1932181N18129 1932 31 WP MM NOT_NAMED 1932-07-02 00:00:00 NR 19.8630 120.128 main 162 162 __________P___ -1 19.8630 120.128 2 5 354
1932181N18129 1932 31 WP MM NOT_NAMED 1932-07-02 03:00:00 NR 20.1145 120.152 main 179 172 __________P___ -1 20.1145 120.152 2 5 17
1932181N18129 1932 31 WP MM NOT_NAMED 1932-07-02 06:00:00 NR 20.3685 120.297 main 172 146 __________P___ -1 20.3685 120.297 2 6 34
1932181N18129 1932 31 WP MM NOT_NAMED 1932-07-02 09:00:00 NR 20.6186 120.517 main 146 134 __________P___ -1 20.6186 120.517 2 7 40
1932181N18129 1932 31 WP MM NOT_NAMED 1932-07-02 10:00:00 NR 20.7000 120.600 main 134 111 __________O___ -1 20.7000 120.600 2 7 45
1932181N18129 1932 31 WP MM NOT_NAMED 1932-07-02 12:00:00 NR 20.8588 120.771 main 111 90 __________P___ -1 20.8588 120.771 2 7 47
1932181N18129 1932 31 WP MM NOT_NAMED 1932-07-02 15:00:00 NR 21.0884 121.040 main 90 78 __________P___ -1 21.0884 121.040 2 7 49
1932181N18129 1932 31 WP MM NOT_NAMED 1932-07-02 18:00:00 NR 21.3105 121.319 main 78 76 __________P___ -1 21.3105 121.319 2 7 50
1932181N18129 1932 31 WP MM NOT_NAMED 1932-07-02 21:00:00 NR 21.5280 121.604 main 85 79 __________P___ -1 21.5280 121.604 2 7 51
1932181N18129 1932 31 WP MM NOT_NAMED 1932-07-02 22:00:00 NR 21.6000 121.700 main 89 __________O___ -1 21.6000 121.700 7 7 50

Digital Typhoon Data and Search

About IBTrACS Database

This database is a web-friendly format of International Best Track Archive for Climate Stewardship (IBTrACS), a global best track data archive curated by NOAA dating back to 1842.

Updated: 2021-10-08